Las Vegas, Nevada
Traffic Map
Current Weather Conditions
Las Vegas, Nevada
Few Clouds
Few Clouds
100°
Feels Like: 100°
Wind Chill: 100° Ceiling: Unl
Heat Index: 100° Visibility: 10mi
Dew Point: 40° Wind: 6mph
Humidity: 13% Direction: 90° (E)
Pressure: 29.95in Gusts: 0mph
Raw Report DataKLAS 271756Z 09005KT 10SM FEW120 FEW250 38/04 A2995 RMK AO2 SLP109 T03780044 10383 20294 58000
Traffic Incident Summary
Active as of:
Severity:
Category:
InformationThere was an issue retrieving the traffic information for this location. Please try a different location or try again shortly.
Advertisements
Track Severe Weather on mobile